<?xml version="1.0" encoding="UTF-8" standalone="no" ?>
<gpx xmlns="http://www.topografix.com/GPX/1/1" xmlns:xsi="http://www.w3.org/2001/XMLSchema-instance" xsi:schemaLocation="http://www.topografix.com/GPX/1/1 http://www.topografix.com/GPX/1/1/gpx.xsd" version="1.1" creator="VisuGPX - https://www.visugpx.com">
  <metadata>
    <name>rando Vallée de l'Essonne 24 km</name>
    <desc><![CDATA[rando facile de 24 km depuis la gare de Boigneville à celle de Maisse (Essonnes)
[url]http://trekkingzone.wordpress.com[/url]]]></desc>
  </metadata>
  <trk>
    <name><![CDATA[16 avr. 2017 à 10:00:19]]></name>
    <cmt><![CDATA[16 avr. 2017 à 10:00:19]]></cmt>
    <trkseg>
      <trkpt lat="48.34155" lon="2.3792">
        <ele>68</ele>
        <time>2017-04-16T08:00:15Z</time>
      </trkpt>
      <trkpt lat="48.34151" lon="2.37883">
        <ele>75</ele>
        <time>2017-04-16T08:00:42Z</time>
      </trkpt>
      <trkpt lat="48.34173" lon="2.37881">
        <ele>74</ele>
        <time>2017-04-16T08:02:25Z</time>
      </trkpt>
      <trkpt lat="48.34196" lon="2.37885">
        <ele>70</ele>
        <time>2017-04-16T08:02:50Z</time>
      </trkpt>
      <trkpt lat="48.34205" lon="2.37918">
        <ele>69</ele>
        <time>2017-04-16T08:03:26Z</time>
      </trkpt>
      <trkpt lat="48.34182" lon="2.37922">
        <ele>73</ele>
        <time>2017-04-16T08:03:51Z</time>
      </trkpt>
      <trkpt lat="48.34159" lon="2.37912">
        <ele>73</ele>
        <time>2017-04-16T08:04:11Z</time>
      </trkpt>
      <trkpt lat="48.34139" lon="2.37895">
        <ele>72</ele>
        <time>2017-04-16T08:04:30Z</time>
      </trkpt>
      <trkpt lat="48.34117" lon="2.37889">
        <ele>71</ele>
        <time>2017-04-16T08:04:48Z</time>
      </trkpt>
      <trkpt lat="48.34094" lon="2.37882">
        <ele>69</ele>
        <time>2017-04-16T08:05:02Z</time>
      </trkpt>
      <trkpt lat="48.34074" lon="2.37867">
        <ele>69</ele>
        <time>2017-04-16T08:05:18Z</time>
      </trkpt>
      <trkpt lat="48.34052" lon="2.37856">
        <ele>69</ele>
        <time>2017-04-16T08:05:39Z</time>
      </trkpt>
      <trkpt lat="48.3403" lon="2.37848">
        <ele>69</ele>
        <time>2017-04-16T08:05:54Z</time>
      </trkpt>
      <trkpt lat="48.33985" lon="2.37831">
        <ele>67</ele>
        <time>2017-04-16T08:06:31Z</time>
      </trkpt>
      <trkpt lat="48.33962" lon="2.37829">
        <ele>67</ele>
        <time>2017-04-16T08:06:51Z</time>
      </trkpt>
      <trkpt lat="48.33942" lon="2.37815">
        <ele>67</ele>
        <time>2017-04-16T08:07:09Z</time>
      </trkpt>
      <trkpt lat="48.33919" lon="2.37821">
        <ele>67</ele>
        <time>2017-04-16T08:07:49Z</time>
      </trkpt>
      <trkpt lat="48.33879" lon="2.37785">
        <ele>66</ele>
        <time>2017-04-16T08:08:21Z</time>
      </trkpt>
      <trkpt lat="48.33858" lon="2.37801">
        <ele>65</ele>
        <time>2017-04-16T08:08:36Z</time>
      </trkpt>
      <trkpt lat="48.33849" lon="2.37833">
        <ele>64</ele>
        <time>2017-04-16T08:08:51Z</time>
      </trkpt>
      <trkpt lat="48.33847" lon="2.37867">
        <ele>64</ele>
        <time>2017-04-16T08:09:11Z</time>
      </trkpt>
      <trkpt lat="48.33834" lon="2.37897">
        <ele>63</ele>
        <time>2017-04-16T08:09:25Z</time>
      </trkpt>
      <trkpt lat="48.33825" lon="2.37928">
        <ele>63</ele>
        <time>2017-04-16T08:09:42Z</time>
      </trkpt>
      <trkpt lat="48.33823" lon="2.37962">
        <ele>63</ele>
        <time>2017-04-16T08:09:55Z</time>
      </trkpt>
      <trkpt lat="48.33827" lon="2.37995">
        <ele>62</ele>
        <time>2017-04-16T08:10:13Z</time>
      </trkpt>
      <trkpt lat="48.33821" lon="2.38064">
        <ele>62</ele>
        <time>2017-04-16T08:10:43Z</time>
      </trkpt>
      <trkpt lat="48.33813" lon="2.38098">
        <ele>62</ele>
        <time>2017-04-16T08:11:33Z</time>
      </trkpt>
      <trkpt lat="48.33808" lon="2.3811">
        <ele>62</ele>
        <time>2017-04-16T08:16:22Z</time>
      </trkpt>
      <trkpt lat="48.33801" lon="2.38143">
        <ele>62</ele>
        <time>2017-04-16T08:17:06Z</time>
      </trkpt>
      <trkpt lat="48.33802" lon="2.38177">
        <ele>62</ele>
        <time>2017-04-16T08:17:31Z</time>
      </trkpt>
      <trkpt lat="48.33787" lon="2.38245">
        <ele>62</ele>
        <time>2017-04-16T08:18:01Z</time>
      </trkpt>
      <trkpt lat="48.33772" lon="2.38272">
        <ele>62</ele>
        <time>2017-04-16T08:18:20Z</time>
      </trkpt>
      <trkpt lat="48.33762" lon="2.38303">
        <ele>62</ele>
        <time>2017-04-16T08:18:39Z</time>
      </trkpt>
      <trkpt lat="48.33747" lon="2.38331">
        <ele>62</ele>
        <time>2017-04-16T08:18:54Z</time>
      </trkpt>
      <trkpt lat="48.33722" lon="2.38389">
        <ele>62</ele>
        <time>2017-04-16T08:19:39Z</time>
      </trkpt>
      <trkpt lat="48.33706" lon="2.38415">
        <ele>62</ele>
        <time>2017-04-16T08:20:00Z</time>
      </trkpt>
      <trkpt lat="48.33695" lon="2.38447">
        <ele>62</ele>
        <time>2017-04-16T08:20:29Z</time>
      </trkpt>
      <trkpt lat="48.33674" lon="2.38462">
        <ele>62</ele>
        <time>2017-04-16T08:20:41Z</time>
      </trkpt>
      <trkpt lat="48.33638" lon="2.38508">
        <ele>62</ele>
        <time>2017-04-16T08:21:15Z</time>
      </trkpt>
      <trkpt lat="48.33601" lon="2.3855">
        <ele>62</ele>
        <time>2017-04-16T08:21:51Z</time>
      </trkpt>
      <trkpt lat="48.33566" lon="2.38598">
        <ele>62</ele>
        <time>2017-04-16T08:22:22Z</time>
      </trkpt>
      <trkpt lat="48.33546" lon="2.38616">
        <ele>62</ele>
        <time>2017-04-16T08:22:37Z</time>
      </trkpt>
      <trkpt lat="48.33509" lon="2.3866">
        <ele>62</ele>
        <time>2017-04-16T08:23:16Z</time>
      </trkpt>
      <trkpt lat="48.33485" lon="2.38718">
        <ele>62</ele>
        <time>2017-04-16T08:23:52Z</time>
      </trkpt>
      <trkpt lat="48.33459" lon="2.38778">
        <ele>62</ele>
        <time>2017-04-16T08:24:29Z</time>
      </trkpt>
      <trkpt lat="48.33443" lon="2.38802">
        <ele>62</ele>
        <time>2017-04-16T08:24:44Z</time>
      </trkpt>
      <trkpt lat="48.33422" lon="2.38863">
        <ele>62</ele>
        <time>2017-04-16T08:25:19Z</time>
      </trkpt>
      <trkpt lat="48.3341" lon="2.38891">
        <ele>62</ele>
        <time>2017-04-16T08:25:37Z</time>
      </trkpt>
      <trkpt lat="48.33389" lon="2.38908">
        <ele>62</ele>
        <time>2017-04-16T08:25:51Z</time>
      </trkpt>
      <trkpt lat="48.3339" lon="2.38937">
        <ele>62</ele>
        <time>2017-04-16T08:26:43Z</time>
      </trkpt>
      <trkpt lat="48.33363" lon="2.38993">
        <ele>63</ele>
        <time>2017-04-16T08:27:21Z</time>
      </trkpt>
      <trkpt lat="48.33335" lon="2.39046">
        <ele>64</ele>
        <time>2017-04-16T08:27:58Z</time>
      </trkpt>
      <trkpt lat="48.3332" lon="2.39073">
        <ele>64</ele>
        <time>2017-04-16T08:28:14Z</time>
      </trkpt>
      <trkpt lat="48.33296" lon="2.39134">
        <ele>64</ele>
        <time>2017-04-16T08:28:52Z</time>
      </trkpt>
      <trkpt lat="48.33282" lon="2.39161">
        <ele>65</ele>
        <time>2017-04-16T08:29:08Z</time>
      </trkpt>
      <trkpt lat="48.33241" lon="2.39189">
        <ele>65</ele>
        <time>2017-04-16T08:29:45Z</time>
      </trkpt>
      <trkpt lat="48.33198" lon="2.3921">
        <ele>66</ele>
        <time>2017-04-16T08:30:24Z</time>
      </trkpt>
      <trkpt lat="48.33153" lon="2.392">
        <ele>67</ele>
        <time>2017-04-16T08:30:58Z</time>
      </trkpt>
      <trkpt lat="48.33129" lon="2.39203">
        <ele>67</ele>
        <time>2017-04-16T08:31:23Z</time>
      </trkpt>
      <trkpt lat="48.33111" lon="2.39223">
        <ele>67</ele>
        <time>2017-04-16T08:31:45Z</time>
      </trkpt>
      <trkpt lat="48.33066" lon="2.39214">
        <ele>67</ele>
        <time>2017-04-16T08:32:21Z</time>
      </trkpt>
      <trkpt lat="48.33045" lon="2.392">
        <ele>68</ele>
        <time>2017-04-16T08:32:37Z</time>
      </trkpt>
      <trkpt lat="48.33023" lon="2.39187">
        <ele>68</ele>
        <time>2017-04-16T08:32:56Z</time>
      </trkpt>
      <trkpt lat="48.32966" lon="2.3913">
        <ele>68</ele>
        <time>2017-04-16T08:33:44Z</time>
      </trkpt>
      <trkpt lat="48.32925" lon="2.39093">
        <ele>68</ele>
        <time>2017-04-16T08:34:25Z</time>
      </trkpt>
      <trkpt lat="48.32909" lon="2.39069">
        <ele>69</ele>
        <time>2017-04-16T08:34:41Z</time>
      </trkpt>
      <trkpt lat="48.32887" lon="2.39053">
        <ele>69</ele>
        <time>2017-04-16T08:34:58Z</time>
      </trkpt>
      <trkpt lat="48.3284" lon="2.39047">
        <ele>69</ele>
        <time>2017-04-16T08:35:29Z</time>
      </trkpt>
      <trkpt lat="48.32818" lon="2.39047">
        <ele>69</ele>
        <time>2017-04-16T08:35:48Z</time>
      </trkpt>
      <trkpt lat="48.32774" lon="2.39026">
        <ele>69</ele>
        <time>2017-04-16T08:36:26Z</time>
      </trkpt>
      <trkpt lat="48.32729" lon="2.39019">
        <ele>69</ele>
        <time>2017-04-16T08:37:02Z</time>
      </trkpt>
      <trkpt lat="48.32684" lon="2.39005">
        <ele>69</ele>
        <time>2017-04-16T08:37:34Z</time>
      </trkpt>
      <trkpt lat="48.32639" lon="2.3898">
        <ele>70</ele>
        <time>2017-04-16T08:38:16Z</time>
      </trkpt>
      <trkpt lat="48.32615" lon="2.38982">
        <ele>70</ele>
        <time>2017-04-16T08:38:30Z</time>
      </trkpt>
      <trkpt lat="48.32574" lon="2.38952">
        <ele>70</ele>
        <time>2017-04-16T08:39:03Z</time>
      </trkpt>
      <trkpt lat="48.32553" lon="2.38964">
        <ele>70</ele>
        <time>2017-04-16T08:39:18Z</time>
      </trkpt>
      <trkpt lat="48.3253" lon="2.38973">
        <ele>71</ele>
        <time>2017-04-16T08:39:33Z</time>
      </trkpt>
      <trkpt lat="48.32507" lon="2.38973">
        <ele>71</ele>
        <time>2017-04-16T08:40:03Z</time>
      </trkpt>
      <trkpt lat="48.32486" lon="2.38986">
        <ele>71</ele>
        <time>2017-04-16T08:40:16Z</time>
      </trkpt>
      <trkpt lat="48.32465" lon="2.38999">
        <ele>71</ele>
        <time>2017-04-16T08:40:32Z</time>
      </trkpt>
      <trkpt lat="48.32395" lon="2.39001">
        <ele>71</ele>
        <time>2017-04-16T08:41:21Z</time>
      </trkpt>
      <trkpt lat="48.32347" lon="2.39008">
        <ele>72</ele>
        <time>2017-04-16T08:41:53Z</time>
      </trkpt>
      <trkpt lat="48.32324" lon="2.39017">
        <ele>72</ele>
        <time>2017-04-16T08:42:07Z</time>
      </trkpt>
      <trkpt lat="48.3231" lon="2.39017">
        <ele>73</ele>
        <time>2017-04-16T08:42:51Z</time>
      </trkpt>
      <trkpt lat="48.32264" lon="2.39027">
        <ele>74</ele>
        <time>2017-04-16T08:43:39Z</time>
      </trkpt>
      <trkpt lat="48.32246" lon="2.39047">
        <ele>75</ele>
        <time>2017-04-16T08:43:53Z</time>
      </trkpt>
      <trkpt lat="48.3223" lon="2.39073">
        <ele>76</ele>
        <time>2017-04-16T08:44:11Z</time>
      </trkpt>
      <trkpt lat="48.3221" lon="2.39134">
        <ele>78</ele>
        <time>2017-04-16T08:44:46Z</time>
      </trkpt>
      <trkpt lat="48.32207" lon="2.39168">
        <ele>82</ele>
        <time>2017-04-16T08:45:53Z</time>
      </trkpt>
      <trkpt lat="48.32208" lon="2.39202">
        <ele>80</ele>
        <time>2017-04-16T08:46:10Z</time>
      </trkpt>
      <trkpt lat="48.32212" lon="2.39237">
        <ele>80</ele>
        <time>2017-04-16T08:46:26Z</time>
      </trkpt>
      <trkpt lat="48.32224" lon="2.39265">
        <ele>79</ele>
        <time>2017-04-16T08:46:43Z</time>
      </trkpt>
      <trkpt lat="48.32229" lon="2.39301">
        <ele>79</ele>
        <time>2017-04-16T08:47:00Z</time>
      </trkpt>
      <trkpt lat="48.32221" lon="2.39368">
        <ele>78</ele>
        <time>2017-04-16T08:47:34Z</time>
      </trkpt>
      <trkpt lat="48.32202" lon="2.39432">
        <ele>78</ele>
        <time>2017-04-16T08:48:08Z</time>
      </trkpt>
      <trkpt lat="48.32183" lon="2.39496">
        <ele>79</ele>
        <time>2017-04-16T08:48:43Z</time>
      </trkpt>
      <trkpt lat="48.32177" lon="2.3953">
        <ele>79</ele>
        <time>2017-04-16T08:49:05Z</time>
      </trkpt>
      <trkpt lat="48.32165" lon="2.39559">
        <ele>79</ele>
        <time>2017-04-16T08:49:21Z</time>
      </trkpt>
      <trkpt lat="48.32162" lon="2.39594">
        <ele>80</ele>
        <time>2017-04-16T08:49:39Z</time>
      </trkpt>
      <trkpt lat="48.32149" lon="2.39659">
        <ele>81</ele>
        <time>2017-04-16T08:50:13Z</time>
      </trkpt>
      <trkpt lat="48.32132" lon="2.39722">
        <ele>82</ele>
        <time>2017-04-16T08:50:48Z</time>
      </trkpt>
      <trkpt lat="48.32127" lon="2.39756">
        <ele>82</ele>
        <time>2017-04-16T08:51:08Z</time>
      </trkpt>
      <trkpt lat="48.32122" lon="2.3979">
        <ele>82</ele>
        <time>2017-04-16T08:51:34Z</time>
      </trkpt>
      <trkpt lat="48.32119" lon="2.39824">
        <ele>82</ele>
        <time>2017-04-16T08:51:54Z</time>
      </trkpt>
      <trkpt lat="48.32082" lon="2.39867">
        <ele>82</ele>
        <time>2017-04-16T08:52:44Z</time>
      </trkpt>
      <trkpt lat="48.32062" lon="2.39883">
        <ele>81</ele>
        <time>2017-04-16T08:53:03Z</time>
      </trkpt>
      <trkpt lat="48.3204" lon="2.39889">
        <ele>80</ele>
        <time>2017-04-16T08:53:17Z</time>
      </trkpt>
      <trkpt lat="48.32003" lon="2.3993">
        <ele>77</ele>
        <time>2017-04-16T08:53:56Z</time>
      </trkpt>
      <trkpt lat="48.31984" lon="2.3995">
        <ele>75</ele>
        <time>2017-04-16T08:54:16Z</time>
      </trkpt>
      <trkpt lat="48.31955" lon="2.40004">
        <ele>74</ele>
        <time>2017-04-16T08:54:52Z</time>
      </trkpt>
      <trkpt lat="48.31917" lon="2.40054">
        <ele>72</ele>
        <time>2017-04-16T08:55:34Z</time>
      </trkpt>
      <trkpt lat="48.31868" lon="2.40059">
        <ele>71</ele>
        <time>2017-04-16T08:56:13Z</time>
      </trkpt>
      <trkpt lat="48.31822" lon="2.4007">
        <ele>70</ele>
        <time>2017-04-16T08:56:46Z</time>
      </trkpt>
      <trkpt lat="48.31776" lon="2.40073">
        <ele>69</ele>
        <time>2017-04-16T08:57:29Z</time>
      </trkpt>
      <trkpt lat="48.31729" lon="2.40075">
        <ele>70</ele>
        <time>2017-04-16T08:58:09Z</time>
      </trkpt>
      <trkpt lat="48.31706" lon="2.40068">
        <ele>70</ele>
        <time>2017-04-16T08:58:27Z</time>
      </trkpt>
      <trkpt lat="48.31663" lon="2.40093">
        <ele>70</ele>
        <time>2017-04-16T08:59:08Z</time>
      </trkpt>
      <trkpt lat="48.31621" lon="2.40124">
        <ele>70</ele>
        <time>2017-04-16T08:59:45Z</time>
      </trkpt>
      <trkpt lat="48.316" lon="2.40139">
        <ele>70</ele>
        <time>2017-04-16T09:00:15Z</time>
      </trkpt>
      <trkpt lat="48.31542" lon="2.40197">
        <ele>70</ele>
        <time>2017-04-16T09:01:03Z</time>
      </trkpt>
      <trkpt lat="48.3152" lon="2.40212">
        <ele>70</ele>
        <time>2017-04-16T09:01:21Z</time>
      </trkpt>
      <trkpt lat="48.31485" lon="2.40257">
        <ele>71</ele>
        <time>2017-04-16T09:02:00Z</time>
      </trkpt>
      <trkpt lat="48.31453" lon="2.40306">
        <ele>70</ele>
        <time>2017-04-16T09:02:42Z</time>
      </trkpt>
      <trkpt lat="48.31422" lon="2.40356">
        <ele>70</ele>
        <time>2017-04-16T09:03:19Z</time>
      </trkpt>
      <trkpt lat="48.31382" lon="2.4039">
        <ele>70</ele>
        <time>2017-04-16T09:03:54Z</time>
      </trkpt>
      <trkpt lat="48.31361" lon="2.40406">
        <ele>70</ele>
        <time>2017-04-16T09:04:21Z</time>
      </trkpt>
      <trkpt lat="48.31339" lon="2.40412">
        <ele>70</ele>
        <time>2017-04-16T09:04:37Z</time>
      </trkpt>
      <trkpt lat="48.31295" lon="2.40437">
        <ele>71</ele>
        <time>2017-04-16T09:05:17Z</time>
      </trkpt>
      <trkpt lat="48.3125" lon="2.40446">
        <ele>73</ele>
        <time>2017-04-16T09:05:53Z</time>
      </trkpt>
      <trkpt lat="48.31227" lon="2.40454">
        <ele>74</ele>
        <time>2017-04-16T09:06:07Z</time>
      </trkpt>
      <trkpt lat="48.31208" lon="2.40472">
        <ele>74</ele>
        <time>2017-04-16T09:06:28Z</time>
      </trkpt>
      <trkpt lat="48.31193" lon="2.40499">
        <ele>76</ele>
        <time>2017-04-16T09:06:54Z</time>
      </trkpt>
      <trkpt lat="48.31187" lon="2.40532">
        <ele>77</ele>
        <time>2017-04-16T09:07:15Z</time>
      </trkpt>
      <trkpt lat="48.31162" lon="2.40588">
        <ele>79</ele>
        <time>2017-04-16T09:07:49Z</time>
      </trkpt>
      <trkpt lat="48.31128" lon="2.40636">
        <ele>81</ele>
        <time>2017-04-16T09:08:27Z</time>
      </trkpt>
      <trkpt lat="48.31111" lon="2.40659">
        <ele>81</ele>
        <time>2017-04-16T09:08:52Z</time>
      </trkpt>
      <trkpt lat="48.3107" lon="2.40691">
        <ele>80</ele>
        <time>2017-04-16T09:09:39Z</time>
      </trkpt>
      <trkpt lat="48.31034" lon="2.40739">
        <ele>77</ele>
        <time>2017-04-16T09:10:11Z</time>
      </trkpt>
      <trkpt lat="48.31014" lon="2.40759">
        <ele>76</ele>
        <time>2017-04-16T09:10:40Z</time>
      </trkpt>
      <trkpt lat="48.30969" lon="2.40786">
        <ele>75</ele>
        <time>2017-04-16T09:11:21Z</time>
      </trkpt>
      <trkpt lat="48.30948" lon="2.40803">
        <ele>75</ele>
        <time>2017-04-16T09:12:19Z</time>
      </trkpt>
      <trkpt lat="48.30927" lon="2.40815">
        <ele>68</ele>
        <time>2017-04-16T09:19:47Z</time>
      </trkpt>
      <trkpt lat="48.30905" lon="2.40823">
        <ele>68</ele>
        <time>2017-04-16T09:20:02Z</time>
      </trkpt>
      <trkpt lat="48.30883" lon="2.40834">
        <ele>68</ele>
        <time>2017-04-16T09:20:49Z</time>
      </trkpt>
      <trkpt lat="48.3086" lon="2.40842">
        <ele>68</ele>
        <time>2017-04-16T09:21:09Z</time>
      </trkpt>
      <trkpt lat="48.30845" lon="2.40853">
        <ele>68</ele>
        <time>2017-04-16T09:22:01Z</time>
      </trkpt>
      <trkpt lat="48.30865" lon="2.40869">
        <ele>68</ele>
        <time>2017-04-16T09:22:47Z</time>
      </trkpt>
      <trkpt lat="48.30871" lon="2.40902">
        <ele>67</ele>
        <time>2017-04-16T09:23:20Z</time>
      </trkpt>
      <trkpt lat="48.30874" lon="2.40936">
        <ele>66</ele>
        <time>2017-04-16T09:24:20Z</time>
      </trkpt>
      <trkpt lat="48.30885" lon="2.40965">
        <ele>65</ele>
        <time>2017-04-16T09:24:57Z</time>
      </trkpt>
      <trkpt lat="48.30905" lon="2.41029">
        <ele>65</ele>
        <time>2017-04-16T09:25:38Z</time>
      </trkpt>
      <trkpt lat="48.30918" lon="2.41057">
        <ele>66</ele>
        <time>2017-04-16T09:25:56Z</time>
      </trkpt>
      <trkpt lat="48.30935" lon="2.41122">
        <ele>66</ele>
        <time>2017-04-16T09:26:33Z</time>
      </trkpt>
      <trkpt lat="48.30944" lon="2.41154">
        <ele>66</ele>
        <time>2017-04-16T09:26:50Z</time>
      </trkpt>
      <trkpt lat="48.30953" lon="2.41187">
        <ele>66</ele>
        <time>2017-04-16T09:27:07Z</time>
      </trkpt>
      <trkpt lat="48.30971" lon="2.41211">
        <ele>66</ele>
        <time>2017-04-16T09:27:26Z</time>
      </trkpt>
      <trkpt lat="48.3098" lon="2.41243">
        <ele>66</ele>
        <time>2017-04-16T09:27:46Z</time>
      </trkpt>
      <trkpt lat="48.31004" lon="2.41301">
        <ele>66</ele>
        <time>2017-04-16T09:28:18Z</time>
      </trkpt>
      <trkpt lat="48.31012" lon="2.41369">
        <ele>66</ele>
        <time>2017-04-16T09:28:55Z</time>
      </trkpt>
      <trkpt lat="48.31047" lon="2.41419">
        <ele>66</ele>
        <time>2017-04-16T09:29:35Z</time>
      </trkpt>
      <trkpt lat="48.31058" lon="2.41448">
        <ele>66</ele>
        <time>2017-04-16T09:29:54Z</time>
      </trkpt>
      <trkpt lat="48.31091" lon="2.41496">
        <ele>66</ele>
        <time>2017-04-16T09:30:31Z</time>
      </trkpt>
      <trkpt lat="48.311" lon="2.41528">
        <ele>66</ele>
        <time>2017-04-16T09:30:53Z</time>
      </trkpt>
      <trkpt lat="48.3113" lon="2.41578">
        <ele>66</ele>
        <time>2017-04-16T09:31:26Z</time>
      </trkpt>
      <trkpt lat="48.3115" lon="2.41597">
        <ele>66</ele>
        <time>2017-04-16T09:31:49Z</time>
      </trkpt>
      <trkpt lat="48.31163" lon="2.41624">
        <ele>66</ele>
        <time>2017-04-16T09:32:02Z</time>
      </trkpt>
      <trkpt lat="48.31169" lon="2.41658">
        <ele>66</ele>
        <time>2017-04-16T09:32:23Z</time>
      </trkpt>
      <trkpt lat="48.3119" lon="2.41675">
        <ele>66</ele>
        <time>2017-04-16T09:32:40Z</time>
      </trkpt>
      <trkpt lat="48.31213" lon="2.41736">
        <ele>66</ele>
        <time>2017-04-16T09:33:16Z</time>
      </trkpt>
      <trkpt lat="48.31216" lon="2.41769">
        <ele>66</ele>
        <time>2017-04-16T09:34:05Z</time>
      </trkpt>
      <trkpt lat="48.31261" lon="2.41778">
        <ele>66</ele>
        <time>2017-04-16T09:34:38Z</time>
      </trkpt>
      <trkpt lat="48.31284" lon="2.41787">
        <ele>67</ele>
        <time>2017-04-16T09:34:55Z</time>
      </trkpt>
      <trkpt lat="48.31312" lon="2.4184">
        <ele>67</ele>
        <time>2017-04-16T09:35:30Z</time>
      </trkpt>
      <trkpt lat="48.31334" lon="2.4185">
        <ele>67</ele>
        <time>2017-04-16T09:36:09Z</time>
      </trkpt>
      <trkpt lat="48.31356" lon="2.41854">
        <ele>66</ele>
        <time>2017-04-16T09:36:32Z</time>
      </trkpt>
      <trkpt lat="48.31379" lon="2.41867">
        <ele>66</ele>
        <time>2017-04-16T09:36:48Z</time>
      </trkpt>
      <trkpt lat="48.31425" lon="2.41866">
        <ele>66</ele>
        <time>2017-04-16T09:37:25Z</time>
      </trkpt>
      <trkpt lat="48.31472" lon="2.41859">
        <ele>66</ele>
        <time>2017-04-16T09:38:06Z</time>
      </trkpt>
      <trkpt lat="48.31496" lon="2.4185">
        <ele>66</ele>
        <time>2017-04-16T09:38:21Z</time>
      </trkpt>
      <trkpt lat="48.31519" lon="2.41853">
        <ele>66</ele>
        <time>2017-04-16T09:38:43Z</time>
      </trkpt>
      <trkpt lat="48.31565" lon="2.41837">
        <ele>66</ele>
        <time>2017-04-16T09:39:17Z</time>
      </trkpt>
      <trkpt lat="48.31587" lon="2.41829">
        <ele>67</ele>
        <time>2017-04-16T09:39:38Z</time>
      </trkpt>
      <trkpt lat="48.31602" lon="2.41803">
        <ele>67</ele>
        <time>2017-04-16T09:39:59Z</time>
      </trkpt>
      <trkpt lat="48.31648" lon="2.41795">
        <ele>70</ele>
        <time>2017-04-16T09:41:04Z</time>
      </trkpt>
      <trkpt lat="48.3167" lon="2.41784">
        <ele>72</ele>
        <time>2017-04-16T09:41:43Z</time>
      </trkpt>
      <trkpt lat="48.31661" lon="2.41751">
        <ele>73</ele>
        <time>2017-04-16T09:42:08Z</time>
      </trkpt>
      <trkpt lat="48.31675" lon="2.41724">
        <ele>74</ele>
        <time>2017-04-16T09:42:58Z</time>
      </trkpt>
      <trkpt lat="48.31698" lon="2.41717">
        <ele>75</ele>
        <time>2017-04-16T09:43:48Z</time>
      </trkpt>
      <trkpt lat="48.31714" lon="2.41685">
        <ele>77</ele>
        <time>2017-04-16T09:44:36Z</time>
      </trkpt>
      <trkpt lat="48.31761" lon="2.41663">
        <ele>80</ele>
        <time>2017-04-16T09:45:23Z</time>
      </trkpt>
      <trkpt lat="48.31763" lon="2.41653">
        <ele>88</ele>
        <time>2017-04-16T09:46:35Z</time>
      </trkpt>
      <trkpt lat="48.31749" lon="2.41589">
        <ele>92</ele>
        <time>2017-04-16T09:47:15Z</time>
      </trkpt>
      <trkpt lat="48.31758" lon="2.41557">
        <ele>93</ele>
        <time>2017-04-16T09:47:35Z</time>
      </trkpt>
      <trkpt lat="48.31779" lon="2.41541">
        <ele>94</ele>
        <time>2017-04-16T09:47:53Z</time>
      </trkpt>
      <trkpt lat="48.31801" lon="2.41548">
        <ele>95</ele>
        <time>2017-04-16T09:48:15Z</time>
      </trkpt>
      <trkpt lat="48.31823" lon="2.41542">
        <ele>97</ele>
        <time>2017-04-16T09:48:53Z</time>
      </trkpt>
      <trkpt lat="48.31839" lon="2.41515">
        <ele>98</ele>
        <time>2017-04-16T09:49:16Z</time>
      </trkpt>
      <trkpt lat="48.3186" lon="2.41503">
        <ele>100</ele>
        <time>2017-04-16T09:49:33Z</time>
      </trkpt>
      <trkpt lat="48.31877" lon="2.41478">
        <ele>101</ele>
        <time>2017-04-16T09:49:52Z</time>
      </trkpt>
      <trkpt lat="48.31897" lon="2.41461">
        <ele>102</ele>
        <time>2017-04-16T09:50:09Z</time>
      </trkpt>
      <trkpt lat="48.31918" lon="2.41449">
        <ele>104</ele>
        <time>2017-04-16T09:50:28Z</time>
      </trkpt>
      <trkpt lat="48.31937" lon="2.41429">
        <ele>105</ele>
        <time>2017-04-16T09:50:43Z</time>
      </trkpt>
      <trkpt lat="48.31949" lon="2.41399">
        <ele>106</ele>
        <time>2017-04-16T09:50:57Z</time>
      </trkpt>
      <trkpt lat="48.31981" lon="2.4135">
        <ele>107</ele>
        <time>2017-04-16T09:51:33Z</time>
      </trkpt>
      <trkpt lat="48.32011" lon="2.413">
        <ele>110</ele>
        <time>2017-04-16T09:52:05Z</time>
      </trkpt>
      <trkpt lat="48.32037" lon="2.41243">
        <ele>112</ele>
        <time>2017-04-16T09:52:48Z</time>
      </trkpt>
      <trkpt lat="48.32053" lon="2.41217">
        <ele>112</ele>
        <time>2017-04-16T09:53:03Z</time>
      </trkpt>
      <trkpt lat="48.32065" lon="2.41187">
        <ele>112</ele>
        <time>2017-04-16T09:53:24Z</time>
      </trkpt>
      <trkpt lat="48.32083" lon="2.41166">
        <ele>112</ele>
        <time>2017-04-16T09:53:42Z</time>
      </trkpt>
      <trkpt lat="48.32106" lon="2.41105">
        <ele>111</ele>
        <time>2017-04-16T09:54:19Z</time>
      </trkpt>
      <trkpt lat="48.32142" lon="2.41059">
        <ele>111</ele>
        <time>2017-04-16T09:54:54Z</time>
      </trkpt>
      <trkpt lat="48.32176" lon="2.41009">
        <ele>110</ele>
        <time>2017-04-16T09:55:29Z</time>
      </trkpt>
      <trkpt lat="48.3219" lon="2.40979">
        <ele>109</ele>
        <time>2017-04-16T09:55:47Z</time>
      </trkpt>
      <trkpt lat="48.32227" lon="2.40937">
        <ele>107</ele>
        <time>2017-04-16T09:56:22Z</time>
      </trkpt>
      <trkpt lat="48.32243" lon="2.40911">
        <ele>107</ele>
        <time>2017-04-16T09:56:43Z</time>
      </trkpt>
      <trkpt lat="48.32254" lon="2.4088">
        <ele>107</ele>
        <time>2017-04-16T09:57:00Z</time>
      </trkpt>
      <trkpt lat="48.32273" lon="2.40859">
        <ele>107</ele>
        <time>2017-04-16T09:57:20Z</time>
      </trkpt>
      <trkpt lat="48.32304" lon="2.40811">
        <ele>108</ele>
        <time>2017-04-16T09:57:53Z</time>
      </trkpt>
      <trkpt lat="48.32332" lon="2.40755">
        <ele>108</ele>
        <time>2017-04-16T09:58:33Z</time>
      </trkpt>
      <trkpt lat="48.32363" lon="2.40704">
        <ele>108</ele>
        <time>2017-04-16T09:59:07Z</time>
      </trkpt>
      <trkpt lat="48.32366" lon="2.40669">
        <ele>108</ele>
        <time>2017-04-16T09:59:27Z</time>
      </trkpt>
      <trkpt lat="48.32388" lon="2.40608">
        <ele>105</ele>
        <time>2017-04-16T10:00:06Z</time>
      </trkpt>
      <trkpt lat="48.32407" lon="2.40588">
        <ele>104</ele>
        <time>2017-04-16T10:00:18Z</time>
      </trkpt>
      <trkpt lat="48.32436" lon="2.40537">
        <ele>103</ele>
        <time>2017-04-16T10:00:54Z</time>
      </trkpt>
      <trkpt lat="48.3245" lon="2.40509">
        <ele>102</ele>
        <time>2017-04-16T10:01:12Z</time>
      </trkpt>
      <trkpt lat="48.32482" lon="2.40463">
        <ele>102</ele>
        <time>2017-04-16T10:01:48Z</time>
      </trkpt>
      <trkpt lat="48.32513" lon="2.40412">
        <ele>102</ele>
        <time>2017-04-16T10:02:24Z</time>
      </trkpt>
      <trkpt lat="48.32545" lon="2.40362">
        <ele>104</ele>
        <time>2017-04-16T10:03:02Z</time>
      </trkpt>
      <trkpt lat="48.32576" lon="2.40311">
        <ele>106</ele>
        <time>2017-04-16T10:03:38Z</time>
      </trkpt>
      <trkpt lat="48.32617" lon="2.40283">
        <ele>107</ele>
        <time>2017-04-16T10:04:12Z</time>
      </trkpt>
      <trkpt lat="48.32623" lon="2.40276">
        <ele>107</ele>
        <time>2017-04-16T10:04:18Z</time>
      </trkpt>
      <trkpt lat="48.32667" lon="2.40245">
        <ele>108</ele>
        <time>2017-04-16T10:04:57Z</time>
      </trkpt>
      <trkpt lat="48.3271" lon="2.40219">
        <ele>107</ele>
        <time>2017-04-16T10:05:31Z</time>
      </trkpt>
      <trkpt lat="48.32755" lon="2.40195">
        <ele>107</ele>
        <time>2017-04-16T10:06:01Z</time>
      </trkpt>
      <trkpt lat="48.32803" lon="2.40194">
        <ele>107</ele>
        <time>2017-04-16T10:06:35Z</time>
      </trkpt>
      <trkpt lat="48.32848" lon="2.40175">
        <ele>107</ele>
        <time>2017-04-16T10:07:12Z</time>
      </trkpt>
      <trkpt lat="48.3287" lon="2.40166">
        <ele>107</ele>
        <time>2017-04-16T10:07:31Z</time>
      </trkpt>
      <trkpt lat="48.32886" lon="2.40166">
        <ele>108</ele>
        <time>2017-04-16T10:08:32Z</time>
      </trkpt>
      <trkpt lat="48.32903" lon="2.40193">
        <ele>106</ele>
        <time>2017-04-16T10:12:27Z</time>
      </trkpt>
      <trkpt lat="48.32918" lon="2.4022">
        <ele>107</ele>
        <time>2017-04-16T10:12:46Z</time>
      </trkpt>
      <trkpt lat="48.32936" lon="2.40282">
        <ele>108</ele>
        <time>2017-04-16T10:13:46Z</time>
      </trkpt>
      <trkpt lat="48.32945" lon="2.40317">
        <ele>108</ele>
        <time>2017-04-16T10:14:43Z</time>
      </trkpt>
      <trkpt lat="48.32953" lon="2.40386">
        <ele>109</ele>
        <time>2017-04-16T10:15:19Z</time>
      </trkpt>
      <trkpt lat="48.32961" lon="2.40418">
        <ele>109</ele>
        <time>2017-04-16T10:15:34Z</time>
      </trkpt>
      <trkpt lat="48.32969" lon="2.40486">
        <ele>110</ele>
        <time>2017-04-16T10:16:05Z</time>
      </trkpt>
      <trkpt lat="48.32977" lon="2.40556">
        <ele>110</ele>
        <time>2017-04-16T10:16:46Z</time>
      </trkpt>
      <trkpt lat="48.3299" lon="2.40629">
        <ele>111</ele>
        <time>2017-04-16T10:17:26Z</time>
      </trkpt>
      <trkpt lat="48.33" lon="2.40698">
        <ele>112</ele>
        <time>2017-04-16T10:18:01Z</time>
      </trkpt>
      <trkpt lat="48.33009" lon="2.40765">
        <ele>113</ele>
        <time>2017-04-16T10:18:34Z</time>
      </trkpt>
      <trkpt lat="48.33021" lon="2.40834">
        <ele>114</ele>
        <time>2017-04-16T10:19:09Z</time>
      </trkpt>
      <trkpt lat="48.33021" lon="2.40887">
        <ele>115</ele>
        <time>2017-04-16T10:19:45Z</time>
      </trkpt>
      <trkpt lat="48.33026" lon="2.40956">
        <ele>115</ele>
        <time>2017-04-16T10:20:16Z</time>
      </trkpt>
      <trkpt lat="48.33027" lon="2.41026">
        <ele>116</ele>
        <time>2017-04-16T10:20:54Z</time>
      </trkpt>
      <trkpt lat="48.33024" lon="2.41061">
        <ele>116</ele>
        <time>2017-04-16T10:21:10Z</time>
      </trkpt>
      <trkpt lat="48.33029" lon="2.41129">
        <ele>116</ele>
        <time>2017-04-16T10:21:43Z</time>
      </trkpt>
      <trkpt lat="48.33032" lon="2.412">
        <ele>117</ele>
        <time>2017-04-16T10:22:18Z</time>
      </trkpt>
      <trkpt lat="48.33036" lon="2.41267">
        <ele>117</ele>
        <time>2017-04-16T10:22:49Z</time>
      </trkpt>
      <trkpt lat="48.33037" lon="2.41335">
        <ele>116</ele>
        <time>2017-04-16T10:23:21Z</time>
      </trkpt>
      <trkpt lat="48.33036" lon="2.41406">
        <ele>116</ele>
        <time>2017-04-16T10:23:55Z</time>
      </trkpt>
      <trkpt lat="48.33039" lon="2.41476">
        <ele>115</ele>
        <time>2017-04-16T10:24:30Z</time>
      </trkpt>
      <trkpt lat="48.33042" lon="2.41546">
        <ele>115</ele>
        <time>2017-04-16T10:25:02Z</time>
      </trkpt>
      <trkpt lat="48.33042" lon="2.41614">
        <ele>116</ele>
        <time>2017-04-16T10:25:36Z</time>
      </trkpt>
      <trkpt lat="48.33045" lon="2.41683">
        <ele>116</ele>
        <time>2017-04-16T10:26:10Z</time>
      </trkpt>
      <trkpt lat="48.33046" lon="2.41752">
        <ele>117</ele>
        <time>2017-04-16T10:26:45Z</time>
      </trkpt>
      <trkpt lat="48.33048" lon="2.4182">
        <ele>118</ele>
        <time>2017-04-16T10:27:18Z</time>
      </trkpt>
      <trkpt lat="48.3305" lon="2.41889">
        <ele>119</ele>
        <time>2017-04-16T10:27:51Z</time>
      </trkpt>
      <trkpt lat="48.33055" lon="2.41959">
        <ele>120</ele>
        <time>2017-04-16T10:28:26Z</time>
      </trkpt>
      <trkpt lat="48.33058" lon="2.42028">
        <ele>120</ele>
        <time>2017-04-16T10:29:02Z</time>
      </trkpt>
      <trkpt lat="48.3306" lon="2.42096">
        <ele>120</ele>
        <time>2017-04-16T10:29:38Z</time>
      </trkpt>
      <trkpt lat="48.33064" lon="2.4213">
        <ele>120</ele>
        <time>2017-04-16T10:29:56Z</time>
      </trkpt>
      <trkpt lat="48.33066" lon="2.42201">
        <ele>119</ele>
        <time>2017-04-16T10:30:31Z</time>
      </trkpt>
      <trkpt lat="48.33071" lon="2.42269">
        <ele>119</ele>
        <time>2017-04-16T10:31:09Z</time>
      </trkpt>
      <trkpt lat="48.33074" lon="2.42338">
        <ele>119</ele>
        <time>2017-04-16T10:31:46Z</time>
      </trkpt>
      <trkpt lat="48.33078" lon="2.4241">
        <ele>119</ele>
        <time>2017-04-16T10:32:20Z</time>
      </trkpt>
      <trkpt lat="48.33083" lon="2.42443">
        <ele>118</ele>
        <time>2017-04-16T10:33:01Z</time>
      </trkpt>
      <trkpt lat="48.3309" lon="2.4248">
        <ele>118</ele>
        <time>2017-04-16T10:34:27Z</time>
      </trkpt>
      <trkpt lat="48.33106" lon="2.42545">
        <ele>118</ele>
        <time>2017-04-16T10:35:08Z</time>
      </trkpt>
      <trkpt lat="48.33112" lon="2.42555">
        <ele>119</ele>
        <time>2017-04-16T10:35:29Z</time>
      </trkpt>
      <trkpt lat="48.33135" lon="2.42555">
        <ele>120</ele>
        <time>2017-04-16T10:37:06Z</time>
      </trkpt>
      <trkpt lat="48.33181" lon="2.42548">
        <ele>119</ele>
        <time>2017-04-16T10:37:51Z</time>
      </trkpt>
      <trkpt lat="48.3316" lon="2.42562">
        <ele>117</ele>
        <time>2017-04-16T10:39:02Z</time>
      </trkpt>
      <trkpt lat="48.33137" lon="2.42568">
        <ele>118</ele>
        <time>2017-04-16T10:39:26Z</time>
      </trkpt>
      <trkpt lat="48.33119" lon="2.42589">
        <ele>118</ele>
        <time>2017-04-16T10:39:54Z</time>
      </trkpt>
      <trkpt lat="48.33124" lon="2.42659">
        <ele>118</ele>
        <time>2017-04-16T10:40:34Z</time>
      </trkpt>
      <trkpt lat="48.33125" lon="2.42727">
        <ele>117</ele>
        <time>2017-04-16T10:42:07Z</time>
      </trkpt>
      <trkpt lat="48.33129" lon="2.42794">
        <ele>117</ele>
        <time>2017-04-16T10:42:39Z</time>
      </trkpt>
      <trkpt lat="48.3313" lon="2.42862">
        <ele>118</ele>
        <time>2017-04-16T10:43:17Z</time>
      </trkpt>
      <trkpt lat="48.33144" lon="2.42927">
        <ele>118</ele>
        <time>2017-04-16T10:43:51Z</time>
      </trkpt>
      <trkpt lat="48.33161" lon="2.42993">
        <ele>118</ele>
        <time>2017-04-16T10:44:38Z</time>
      </trkpt>
      <trkpt lat="48.33175" lon="2.43061">
        <ele>118</ele>
        <time>2017-04-16T10:45:11Z</time>
      </trkpt>
      <trkpt lat="48.33193" lon="2.43124">
        <ele>118</ele>
        <time>2017-04-16T10:45:49Z</time>
      </trkpt>
      <trkpt lat="48.33216" lon="2.43185">
        <ele>117</ele>
        <time>2017-04-16T10:46:24Z</time>
      </trkpt>
      <trkpt lat="48.33236" lon="2.43248">
        <ele>116</ele>
        <time>2017-04-16T10:46:58Z</time>
      </trkpt>
      <trkpt lat="48.33249" lon="2.43275">
        <ele>115</ele>
        <time>2017-04-16T10:47:12Z</time>
      </trkpt>
      <trkpt lat="48.33266" lon="2.43301">
        <ele>115</ele>
        <time>2017-04-16T10:47:31Z</time>
      </trkpt>
      <trkpt lat="48.33309" lon="2.4333">
        <ele>114</ele>
        <time>2017-04-16T10:48:07Z</time>
      </trkpt>
      <trkpt lat="48.33332" lon="2.43339">
        <ele>113</ele>
        <time>2017-04-16T10:48:26Z</time>
      </trkpt>
      <trkpt lat="48.33377" lon="2.43358">
        <ele>111</ele>
        <time>2017-04-16T10:49:05Z</time>
      </trkpt>
      <trkpt lat="48.33421" lon="2.43377">
        <ele>110</ele>
        <time>2017-04-16T10:49:40Z</time>
      </trkpt>
      <trkpt lat="48.33459" lon="2.43339">
        <ele>110</ele>
        <time>2017-04-16T10:50:26Z</time>
      </trkpt>
      <trkpt lat="48.33492" lon="2.43289">
        <ele>109</ele>
        <time>2017-04-16T10:51:05Z</time>
      </trkpt>
      <trkpt lat="48.33523" lon="2.43237">
        <ele>108</ele>
        <time>2017-04-16T10:51:40Z</time>
      </trkpt>
      <trkpt lat="48.33533" lon="2.43207">
        <ele>107</ele>
        <time>2017-04-16T10:52:00Z</time>
      </trkpt>
      <trkpt lat="48.33538" lon="2.43174">
        <ele>107</ele>
        <time>2017-04-16T10:52:22Z</time>
      </trkpt>
      <trkpt lat="48.33548" lon="2.43143">
        <ele>107</ele>
        <time>2017-04-16T10:52:44Z</time>
      </trkpt>
      <trkpt lat="48.33554" lon="2.4311">
        <ele>108</ele>
        <time>2017-04-16T10:54:27Z</time>
      </trkpt>
      <trkpt lat="48.33554" lon="2.43096">
        <ele>111</ele>
        <time>2017-04-16T11:10:01Z</time>
      </trkpt>
      <trkpt lat="48.3355" lon="2.43132">
        <ele>111</ele>
        <time>2017-04-16T12:00:54Z</time>
      </trkpt>
      <trkpt lat="48.33546" lon="2.43166">
        <ele>112</ele>
        <time>2017-04-16T12:01:16Z</time>
      </trkpt>
      <trkpt lat="48.33523" lon="2.43168">
        <ele>111</ele>
        <time>2017-04-16T12:01:55Z</time>
      </trkpt>
      <trkpt lat="48.33515" lon="2.43101">
        <ele>109</ele>
        <time>2017-04-16T12:02:35Z</time>
      </trkpt>
      <trkpt lat="48.33512" lon="2.43067">
        <ele>108</ele>
        <time>2017-04-16T12:02:55Z</time>
      </trkpt>
      <trkpt lat="48.33517" lon="2.42999">
        <ele>107</ele>
        <time>2017-04-16T12:03:31Z</time>
      </trkpt>
      <trkpt lat="48.33521" lon="2.42965">
        <ele>106</ele>
        <time>2017-04-16T12:03:48Z</time>
      </trkpt>
      <trkpt lat="48.33512" lon="2.42898">
        <ele>105</ele>
        <time>2017-04-16T12:04:27Z</time>
      </trkpt>
      <trkpt lat="48.33514" lon="2.42864">
        <ele>104</ele>
        <time>2017-04-16T12:04:44Z</time>
      </trkpt>
      <trkpt lat="48.33505" lon="2.42833">
        <ele>103</ele>
        <time>2017-04-16T12:05:03Z</time>
      </trkpt>
      <trkpt lat="48.33506" lon="2.42764">
        <ele>101</ele>
        <time>2017-04-16T12:05:35Z</time>
      </trkpt>
      <trkpt lat="48.33504" lon="2.4273">
        <ele>100</ele>
        <time>2017-04-16T12:05:52Z</time>
      </trkpt>
      <trkpt lat="48.33516" lon="2.42664">
        <ele>97</ele>
        <time>2017-04-16T12:06:26Z</time>
      </trkpt>
      <trkpt lat="48.33523" lon="2.42596">
        <ele>95</ele>
        <time>2017-04-16T12:07:02Z</time>
      </trkpt>
      <trkpt lat="48.33536" lon="2.42528">
        <ele>93</ele>
        <time>2017-04-16T12:07:37Z</time>
      </trkpt>
      <trkpt lat="48.33553" lon="2.42462">
        <ele>91</ele>
        <time>2017-04-16T12:08:11Z</time>
      </trkpt>
      <trkpt lat="48.3355" lon="2.42428">
        <ele>91</ele>
        <time>2017-04-16T12:08:32Z</time>
      </trkpt>
      <trkpt lat="48.33559" lon="2.42396">
        <ele>90</ele>
        <time>2017-04-16T12:08:46Z</time>
      </trkpt>
      <trkpt lat="48.33562" lon="2.42362">
        <ele>90</ele>
        <time>2017-04-16T12:09:02Z</time>
      </trkpt>
      <trkpt lat="48.33576" lon="2.42328">
        <ele>89</ele>
        <time>2017-04-16T12:09:23Z</time>
      </trkpt>
      <trkpt lat="48.33587" lon="2.4226">
        <ele>88</ele>
        <time>2017-04-16T12:09:53Z</time>
      </trkpt>
      <trkpt lat="48.33592" lon="2.4219">
        <ele>88</ele>
        <time>2017-04-16T12:10:35Z</time>
      </trkpt>
      <trkpt lat="48.33581" lon="2.42122">
        <ele>87</ele>
        <time>2017-04-16T12:11:12Z</time>
      </trkpt>
      <trkpt lat="48.33579" lon="2.42087">
        <ele>86</ele>
        <time>2017-04-16T12:11:27Z</time>
      </trkpt>
      <trkpt lat="48.33564" lon="2.42056">
        <ele>86</ele>
        <time>2017-04-16T12:11:51Z</time>
      </trkpt>
      <trkpt lat="48.33557" lon="2.42023">
        <ele>86</ele>
        <time>2017-04-16T12:12:07Z</time>
      </trkpt>
      <trkpt lat="48.33564" lon="2.41991">
        <ele>85</ele>
        <time>2017-04-16T12:12:21Z</time>
      </trkpt>
      <trkpt lat="48.33561" lon="2.41957">
        <ele>85</ele>
        <time>2017-04-16T12:12:39Z</time>
      </trkpt>
      <trkpt lat="48.33566" lon="2.41889">
        <ele>85</ele>
        <time>2017-04-16T12:13:11Z</time>
      </trkpt>
      <trkpt lat="48.33564" lon="2.41821">
        <ele>84</ele>
        <time>2017-04-16T12:13:45Z</time>
      </trkpt>
      <trkpt lat="48.33568" lon="2.41752">
        <ele>84</ele>
        <time>2017-04-16T12:14:23Z</time>
      </trkpt>
      <trkpt lat="48.3358" lon="2.41686">
        <ele>83</ele>
        <time>2017-04-16T12:14:56Z</time>
      </trkpt>
      <trkpt lat="48.33587" lon="2.41619">
        <ele>82</ele>
        <time>2017-04-16T12:15:35Z</time>
      </trkpt>
      <trkpt lat="48.3359" lon="2.41584">
        <ele>81</ele>
        <time>2017-04-16T12:15:52Z</time>
      </trkpt>
      <trkpt lat="48.336" lon="2.41551">
        <ele>80</ele>
        <time>2017-04-16T12:16:09Z</time>
      </trkpt>
      <trkpt lat="48.33608" lon="2.41517">
        <ele>80</ele>
        <time>2017-04-16T12:16:25Z</time>
      </trkpt>
      <trkpt lat="48.33609" lon="2.41483">
        <ele>79</ele>
        <time>2017-04-16T12:16:43Z</time>
      </trkpt>
      <trkpt lat="48.33623" lon="2.41416">
        <ele>79</ele>
        <time>2017-04-16T12:17:19Z</time>
      </trkpt>
      <trkpt lat="48.33615" lon="2.41384">
        <ele>79</ele>
        <time>2017-04-16T12:17:37Z</time>
      </trkpt>
      <trkpt lat="48.33619" lon="2.41351">
        <ele>79</ele>
        <time>2017-04-16T12:17:53Z</time>
      </trkpt>
      <trkpt lat="48.33628" lon="2.41318">
        <ele>78</ele>
        <time>2017-04-16T12:18:09Z</time>
      </trkpt>
      <trkpt lat="48.33642" lon="2.4129">
        <ele>78</ele>
        <time>2017-04-16T12:18:28Z</time>
      </trkpt>
      <trkpt lat="48.33647" lon="2.41221">
        <ele>78</ele>
        <time>2017-04-16T12:19:06Z</time>
      </trkpt>
      <trkpt lat="48.33644" lon="2.41187">
        <ele>77</ele>
        <time>2017-04-16T12:19:22Z</time>
      </trkpt>
      <trkpt lat="48.33643" lon="2.41151">
        <ele>77</ele>
        <time>2017-04-16T12:19:40Z</time>
      </trkpt>
      <trkpt lat="48.33636" lon="2.4108">
        <ele>77</ele>
        <time>2017-04-16T12:20:16Z</time>
      </trkpt>
      <trkpt lat="48.33622" lon="2.41013">
        <ele>76</ele>
        <time>2017-04-16T12:20:52Z</time>
      </trkpt>
      <trkpt lat="48.33612" lon="2.40982">
        <ele>75</ele>
        <time>2017-04-16T12:21:12Z</time>
      </trkpt>
      <trkpt lat="48.33597" lon="2.40956">
        <ele>74</ele>
        <time>2017-04-16T12:21:29Z</time>
      </trkpt>
      <trkpt lat="48.33584" lon="2.40889">
        <ele>72</ele>
        <time>2017-04-16T12:22:01Z</time>
      </trkpt>
      <trkpt lat="48.33566" lon="2.40826">
        <ele>71</ele>
        <time>2017-04-16T12:22:37Z</time>
      </trkpt>
      <trkpt lat="48.33556" lon="2.40794">
        <ele>70</ele>
        <time>2017-04-16T12:22:56Z</time>
      </trkpt>
      <trkpt lat="48.33553" lon="2.4076">
        <ele>70</ele>
        <time>2017-04-16T12:23:13Z</time>
      </trkpt>
      <trkpt lat="48.33544" lon="2.40729">
        <ele>69</ele>
        <time>2017-04-16T12:23:29Z</time>
      </trkpt>
      <trkpt lat="48.3351" lon="2.40681">
        <ele>69</ele>
        <time>2017-04-16T12:24:08Z</time>
      </trkpt>
      <trkpt lat="48.33481" lon="2.40627">
        <ele>69</ele>
        <time>2017-04-16T12:24:40Z</time>
      </trkpt>
      <trkpt lat="48.33451" lon="2.40574">
        <ele>68</ele>
        <time>2017-04-16T12:25:17Z</time>
      </trkpt>
      <trkpt lat="48.33441" lon="2.40544">
        <ele>68</ele>
        <time>2017-04-16T12:25:34Z</time>
      </trkpt>
      <trkpt lat="48.33426" lon="2.40516">
        <ele>68</ele>
        <time>2017-04-16T12:25:51Z</time>
      </trkpt>
      <trkpt lat="48.33417" lon="2.40485">
        <ele>68</ele>
        <time>2017-04-16T12:26:07Z</time>
      </trkpt>
      <trkpt lat="48.33388" lon="2.40432">
        <ele>67</ele>
        <time>2017-04-16T12:26:43Z</time>
      </trkpt>
      <trkpt lat="48.33374" lon="2.40404">
        <ele>67</ele>
        <time>2017-04-16T12:27:02Z</time>
      </trkpt>
      <trkpt lat="48.33357" lon="2.40382">
        <ele>67</ele>
        <time>2017-04-16T12:27:17Z</time>
      </trkpt>
      <trkpt lat="48.33328" lon="2.40329">
        <ele>66</ele>
        <time>2017-04-16T12:27:50Z</time>
      </trkpt>
      <trkpt lat="48.33303" lon="2.40268">
        <ele>65</ele>
        <time>2017-04-16T12:28:24Z</time>
      </trkpt>
      <trkpt lat="48.33296" lon="2.40235">
        <ele>64</ele>
        <time>2017-04-16T12:29:21Z</time>
      </trkpt>
      <trkpt lat="48.33296" lon="2.40167">
        <ele>64</ele>
        <time>2017-04-16T12:30:03Z</time>
      </trkpt>
      <trkpt lat="48.33299" lon="2.40097">
        <ele>63</ele>
        <time>2017-04-16T12:30:44Z</time>
      </trkpt>
      <trkpt lat="48.33309" lon="2.40065">
        <ele>63</ele>
        <time>2017-04-16T12:31:04Z</time>
      </trkpt>
      <trkpt lat="48.33324" lon="2.40039">
        <ele>63</ele>
        <time>2017-04-16T12:31:22Z</time>
      </trkpt>
      <trkpt lat="48.3333" lon="2.40005">
        <ele>63</ele>
        <time>2017-04-16T12:31:45Z</time>
      </trkpt>
      <trkpt lat="48.3334" lon="2.39975">
        <ele>63</ele>
        <time>2017-04-16T12:31:58Z</time>
      </trkpt>
      <trkpt lat="48.33332" lon="2.39942">
        <ele>63</ele>
        <time>2017-04-16T12:32:14Z</time>
      </trkpt>
      <trkpt lat="48.33362" lon="2.39927">
        <ele>63</ele>
        <time>2017-04-16T12:32:17Z</time>
      </trkpt>
      <trkpt lat="48.33352" lon="2.39895">
        <ele>63</ele>
        <time>2017-04-16T12:32:43Z</time>
      </trkpt>
      <trkpt lat="48.33361" lon="2.39863">
        <ele>63</ele>
        <time>2017-04-16T12:33:02Z</time>
      </trkpt>
      <trkpt lat="48.33369" lon="2.39796">
        <ele>63</ele>
        <time>2017-04-16T12:33:37Z</time>
      </trkpt>
      <trkpt lat="48.33368" lon="2.39784">
        <ele>63</ele>
        <time>2017-04-16T12:33:45Z</time>
      </trkpt>
      <trkpt lat="48.33369" lon="2.3975">
        <ele>63</ele>
        <time>2017-04-16T12:34:01Z</time>
      </trkpt>
      <trkpt lat="48.33366" lon="2.39712">
        <ele>63</ele>
        <time>2017-04-16T12:34:28Z</time>
      </trkpt>
      <trkpt lat="48.33383" lon="2.39646">
        <ele>62</ele>
        <time>2017-04-16T12:35:08Z</time>
      </trkpt>
      <trkpt lat="48.33415" lon="2.39597">
        <ele>62</ele>
        <time>2017-04-16T12:35:43Z</time>
      </trkpt>
      <trkpt lat="48.33449" lon="2.39553">
        <ele>62</ele>
        <time>2017-04-16T12:36:21Z</time>
      </trkpt>
      <trkpt lat="48.3349" lon="2.39522">
        <ele>62</ele>
        <time>2017-04-16T12:37:04Z</time>
      </trkpt>
      <trkpt lat="48.33525" lon="2.39476">
        <ele>61</ele>
        <time>2017-04-16T12:37:40Z</time>
      </trkpt>
      <trkpt lat="48.33551" lon="2.39421">
        <ele>61</ele>
        <time>2017-04-16T12:38:12Z</time>
      </trkpt>
      <trkpt lat="48.33567" lon="2.39394">
        <ele>61</ele>
        <time>2017-04-16T12:38:27Z</time>
      </trkpt>
      <trkpt lat="48.33598" lon="2.39344">
        <ele>61</ele>
        <time>2017-04-16T12:39:03Z</time>
      </trkpt>
      <trkpt lat="48.33615" lon="2.39321">
        <ele>61</ele>
        <time>2017-04-16T12:39:20Z</time>
      </trkpt>
      <trkpt lat="48.33617" lon="2.39287">
        <ele>61</ele>
        <time>2017-04-16T12:39:44Z</time>
      </trkpt>
      <trkpt lat="48.33592" lon="2.39229">
        <ele>61</ele>
        <time>2017-04-16T12:40:35Z</time>
      </trkpt>
      <trkpt lat="48.33572" lon="2.39213">
        <ele>61</ele>
        <time>2017-04-16T12:40:55Z</time>
      </trkpt>
      <trkpt lat="48.33526" lon="2.39196">
        <ele>60</ele>
        <time>2017-04-16T12:41:30Z</time>
      </trkpt>
      <trkpt lat="48.33519" lon="2.39163">
        <ele>60</ele>
        <time>2017-04-16T12:42:18Z</time>
      </trkpt>
      <trkpt lat="48.33497" lon="2.39152">
        <ele>61</ele>
        <time>2017-04-16T12:42:45Z</time>
      </trkpt>
      <trkpt lat="48.33463" lon="2.39104">
        <ele>61</ele>
        <time>2017-04-16T12:43:18Z</time>
      </trkpt>
      <trkpt lat="48.33438" lon="2.39048">
        <ele>61</ele>
        <time>2017-04-16T12:43:56Z</time>
      </trkpt>
      <trkpt lat="48.33427" lon="2.39016">
        <ele>62</ele>
        <time>2017-04-16T12:44:10Z</time>
      </trkpt>
      <trkpt lat="48.3341" lon="2.38989">
        <ele>62</ele>
        <time>2017-04-16T12:44:30Z</time>
      </trkpt>
      <trkpt lat="48.33405" lon="2.38954">
        <ele>62</ele>
        <time>2017-04-16T12:45:17Z</time>
      </trkpt>
      <trkpt lat="48.33421" lon="2.38978">
        <ele>63</ele>
        <time>2017-04-16T12:47:19Z</time>
      </trkpt>
      <trkpt lat="48.33435" lon="2.39007">
        <ele>63</ele>
        <time>2017-04-16T12:47:37Z</time>
      </trkpt>
      <trkpt lat="48.33441" lon="2.3904">
        <ele>63</ele>
        <time>2017-04-16T12:47:54Z</time>
      </trkpt>
      <trkpt lat="48.33456" lon="2.39081">
        <ele>63</ele>
        <time>2017-04-16T12:48:53Z</time>
      </trkpt>
      <trkpt lat="48.33461" lon="2.39092">
        <ele>63</ele>
        <time>2017-04-16T12:48:59Z</time>
      </trkpt>
      <trkpt lat="48.33479" lon="2.39113">
        <ele>63</ele>
        <time>2017-04-16T12:49:18Z</time>
      </trkpt>
      <trkpt lat="48.33493" lon="2.39141">
        <ele>63</ele>
        <time>2017-04-16T12:49:33Z</time>
      </trkpt>
      <trkpt lat="48.33533" lon="2.3918">
        <ele>63</ele>
        <time>2017-04-16T12:50:13Z</time>
      </trkpt>
      <trkpt lat="48.33575" lon="2.39208">
        <ele>63</ele>
        <time>2017-04-16T12:50:50Z</time>
      </trkpt>
      <trkpt lat="48.33594" lon="2.39229">
        <ele>63</ele>
        <time>2017-04-16T12:51:06Z</time>
      </trkpt>
      <trkpt lat="48.33625" lon="2.39287">
        <ele>63</ele>
        <time>2017-04-16T12:51:46Z</time>
      </trkpt>
      <trkpt lat="48.33664" lon="2.39243">
        <ele>63</ele>
        <time>2017-04-16T12:52:18Z</time>
      </trkpt>
      <trkpt lat="48.33685" lon="2.3923">
        <ele>63</ele>
        <time>2017-04-16T12:52:39Z</time>
      </trkpt>
      <trkpt lat="48.33704" lon="2.39209">
        <ele>63</ele>
        <time>2017-04-16T12:53:02Z</time>
      </trkpt>
      <trkpt lat="48.33748" lon="2.39186">
        <ele>63</ele>
        <time>2017-04-16T12:53:35Z</time>
      </trkpt>
      <trkpt lat="48.33794" lon="2.3918">
        <ele>63</ele>
        <time>2017-04-16T12:54:13Z</time>
      </trkpt>
      <trkpt lat="48.33842" lon="2.39181">
        <ele>62</ele>
        <time>2017-04-16T12:54:44Z</time>
      </trkpt>
      <trkpt lat="48.33863" lon="2.39192">
        <ele>62</ele>
        <time>2017-04-16T12:55:02Z</time>
      </trkpt>
      <trkpt lat="48.33909" lon="2.39192">
        <ele>62</ele>
        <time>2017-04-16T12:55:34Z</time>
      </trkpt>
      <trkpt lat="48.33931" lon="2.39181">
        <ele>62</ele>
        <time>2017-04-16T12:55:52Z</time>
      </trkpt>
      <trkpt lat="48.33954" lon="2.39189">
        <ele>62</ele>
        <time>2017-04-16T12:56:13Z</time>
      </trkpt>
      <trkpt lat="48.33976" lon="2.39184">
        <ele>62</ele>
        <time>2017-04-16T12:56:30Z</time>
      </trkpt>
      <trkpt lat="48.34" lon="2.39197">
        <ele>63</ele>
        <time>2017-04-16T12:56:59Z</time>
      </trkpt>
      <trkpt lat="48.34024" lon="2.39193">
        <ele>63</ele>
        <time>2017-04-16T12:57:58Z</time>
      </trkpt>
      <trkpt lat="48.34039" lon="2.39201">
        <ele>64</ele>
        <time>2017-04-16T13:01:07Z</time>
      </trkpt>
      <trkpt lat="48.34055" lon="2.39177">
        <ele>65</ele>
        <time>2017-04-16T13:03:49Z</time>
      </trkpt>
      <trkpt lat="48.34061" lon="2.3911">
        <ele>63</ele>
        <time>2017-04-16T13:04:41Z</time>
      </trkpt>
      <trkpt lat="48.34072" lon="2.39043">
        <ele>63</ele>
        <time>2017-04-16T13:05:13Z</time>
      </trkpt>
      <trkpt lat="48.34084" lon="2.39013">
        <ele>62</ele>
        <time>2017-04-16T13:05:30Z</time>
      </trkpt>
      <trkpt lat="48.34108" lon="2.39012">
        <ele>62</ele>
        <time>2017-04-16T13:05:47Z</time>
      </trkpt>
      <trkpt lat="48.34127" lon="2.38993">
        <ele>62</ele>
        <time>2017-04-16T13:06:03Z</time>
      </trkpt>
      <trkpt lat="48.34142" lon="2.38968">
        <ele>62</ele>
        <time>2017-04-16T13:06:21Z</time>
      </trkpt>
      <trkpt lat="48.34166" lon="2.38963">
        <ele>62</ele>
        <time>2017-04-16T13:06:52Z</time>
      </trkpt>
      <trkpt lat="48.34205" lon="2.38998">
        <ele>62</ele>
        <time>2017-04-16T13:07:26Z</time>
      </trkpt>
      <trkpt lat="48.34226" lon="2.39059">
        <ele>62</ele>
        <time>2017-04-16T13:08:03Z</time>
      </trkpt>
      <trkpt lat="48.34257" lon="2.39111">
        <ele>62</ele>
        <time>2017-04-16T13:08:41Z</time>
      </trkpt>
      <trkpt lat="48.34276" lon="2.39129">
        <ele>62</ele>
        <time>2017-04-16T13:09:05Z</time>
      </trkpt>
      <trkpt lat="48.3432" lon="2.39146">
        <ele>62</ele>
        <time>2017-04-16T13:09:38Z</time>
      </trkpt>
      <trkpt lat="48.34343" lon="2.39151">
        <ele>62</ele>
        <time>2017-04-16T13:10:00Z</time>
      </trkpt>
      <trkpt lat="48.34364" lon="2.39163">
        <ele>62</ele>
        <time>2017-04-16T13:10:19Z</time>
      </trkpt>
      <trkpt lat="48.34388" lon="2.39159">
        <ele>62</ele>
        <time>2017-04-16T13:10:39Z</time>
      </trkpt>
      <trkpt lat="48.34436" lon="2.39167">
        <ele>61</ele>
        <time>2017-04-16T13:11:16Z</time>
      </trkpt>
      <trkpt lat="48.34459" lon="2.39176">
        <ele>61</ele>
        <time>2017-04-16T13:11:29Z</time>
      </trkpt>
      <trkpt lat="48.34481" lon="2.39174">
        <ele>61</ele>
        <time>2017-04-16T13:11:55Z</time>
      </trkpt>
      <trkpt lat="48.345" lon="2.39195">
        <ele>61</ele>
        <time>2017-04-16T13:12:09Z</time>
      </trkpt>
      <trkpt lat="48.34546" lon="2.39213">
        <ele>61</ele>
        <time>2017-04-16T13:12:45Z</time>
      </trkpt>
      <trkpt lat="48.34585" lon="2.39249">
        <ele>61</ele>
        <time>2017-04-16T13:13:19Z</time>
      </trkpt>
      <trkpt lat="48.34608" lon="2.39257">
        <ele>61</ele>
        <time>2017-04-16T13:13:33Z</time>
      </trkpt>
      <trkpt lat="48.34621" lon="2.39285">
        <ele>61</ele>
        <time>2017-04-16T13:13:54Z</time>
      </trkpt>
      <trkpt lat="48.34658" lon="2.39328">
        <ele>61</ele>
        <time>2017-04-16T13:14:28Z</time>
      </trkpt>
      <trkpt lat="48.34676" lon="2.39351">
        <ele>61</ele>
        <time>2017-04-16T13:14:48Z</time>
      </trkpt>
      <trkpt lat="48.34697" lon="2.39367">
        <ele>61</ele>
        <time>2017-04-16T13:15:07Z</time>
      </trkpt>
      <trkpt lat="48.34712" lon="2.39393">
        <ele>61</ele>
        <time>2017-04-16T13:15:31Z</time>
      </trkpt>
      <trkpt lat="48.34753" lon="2.39423">
        <ele>61</ele>
        <time>2017-04-16T13:16:06Z</time>
      </trkpt>
      <trkpt lat="48.34775" lon="2.3943">
        <ele>61</ele>
        <time>2017-04-16T13:16:25Z</time>
      </trkpt>
      <trkpt lat="48.34822" lon="2.39431">
        <ele>61</ele>
        <time>2017-04-16T13:17:03Z</time>
      </trkpt>
      <trkpt lat="48.34844" lon="2.3942">
        <ele>61</ele>
        <time>2017-04-16T13:17:26Z</time>
      </trkpt>
      <trkpt lat="48.34857" lon="2.39391">
        <ele>60</ele>
        <time>2017-04-16T13:17:57Z</time>
      </trkpt>
      <trkpt lat="48.34874" lon="2.39368">
        <ele>60</ele>
        <time>2017-04-16T13:18:20Z</time>
      </trkpt>
      <trkpt lat="48.34882" lon="2.3933">
        <ele>58</ele>
        <time>2017-04-16T13:20:19Z</time>
      </trkpt>
      <trkpt lat="48.34891" lon="2.39298">
        <ele>57</ele>
        <time>2017-04-16T13:21:13Z</time>
      </trkpt>
      <trkpt lat="48.349" lon="2.39267">
        <ele>58</ele>
        <time>2017-04-16T13:21:29Z</time>
      </trkpt>
      <trkpt lat="48.34921" lon="2.39252">
        <ele>58</ele>
        <time>2017-04-16T13:21:55Z</time>
      </trkpt>
      <trkpt lat="48.34942" lon="2.39261">
        <ele>58</ele>
        <time>2017-04-16T13:22:13Z</time>
      </trkpt>
      <trkpt lat="48.34966" lon="2.39252">
        <ele>58</ele>
        <time>2017-04-16T13:22:28Z</time>
      </trkpt>
      <trkpt lat="48.34983" lon="2.39229">
        <ele>59</ele>
        <time>2017-04-16T13:22:46Z</time>
      </trkpt>
      <trkpt lat="48.35018" lon="2.39182">
        <ele>58</ele>
        <time>2017-04-16T13:23:19Z</time>
      </trkpt>
      <trkpt lat="48.35034" lon="2.39157">
        <ele>58</ele>
        <time>2017-04-16T13:23:38Z</time>
      </trkpt>
      <trkpt lat="48.35074" lon="2.39122">
        <ele>59</ele>
        <time>2017-04-16T13:24:12Z</time>
      </trkpt>
      <trkpt lat="48.35096" lon="2.39111">
        <ele>59</ele>
        <time>2017-04-16T13:24:28Z</time>
      </trkpt>
      <trkpt lat="48.35133" lon="2.39068">
        <ele>58</ele>
        <time>2017-04-16T13:25:04Z</time>
      </trkpt>
      <trkpt lat="48.35175" lon="2.39036">
        <ele>57</ele>
        <time>2017-04-16T13:25:42Z</time>
      </trkpt>
      <trkpt lat="48.35213" lon="2.38996">
        <ele>56</ele>
        <time>2017-04-16T13:26:21Z</time>
      </trkpt>
      <trkpt lat="48.35259" lon="2.38977">
        <ele>55</ele>
        <time>2017-04-16T13:26:54Z</time>
      </trkpt>
      <trkpt lat="48.35294" lon="2.38931">
        <ele>55</ele>
        <time>2017-04-16T13:27:33Z</time>
      </trkpt>
      <trkpt lat="48.35311" lon="2.38905">
        <ele>54</ele>
        <time>2017-04-16T13:27:52Z</time>
      </trkpt>
      <trkpt lat="48.35353" lon="2.38868">
        <ele>54</ele>
        <time>2017-04-16T13:28:34Z</time>
      </trkpt>
      <trkpt lat="48.35378" lon="2.3881">
        <ele>54</ele>
        <time>2017-04-16T13:29:15Z</time>
      </trkpt>
      <trkpt lat="48.35416" lon="2.38771">
        <ele>53</ele>
        <time>2017-04-16T13:29:45Z</time>
      </trkpt>
      <trkpt lat="48.35436" lon="2.38752">
        <ele>53</ele>
        <time>2017-04-16T13:30:06Z</time>
      </trkpt>
      <trkpt lat="48.35479" lon="2.38728">
        <ele>52</ele>
        <time>2017-04-16T13:30:39Z</time>
      </trkpt>
      <trkpt lat="48.35526" lon="2.38727">
        <ele>52</ele>
        <time>2017-04-16T13:31:13Z</time>
      </trkpt>
      <trkpt lat="48.3555" lon="2.38726">
        <ele>52</ele>
        <time>2017-04-16T13:31:38Z</time>
      </trkpt>
      <trkpt lat="48.35596" lon="2.38727">
        <ele>53</ele>
        <time>2017-04-16T13:32:14Z</time>
      </trkpt>
      <trkpt lat="48.35643" lon="2.38733">
        <ele>53</ele>
        <time>2017-04-16T13:32:51Z</time>
      </trkpt>
      <trkpt lat="48.35689" lon="2.38721">
        <ele>53</ele>
        <time>2017-04-16T13:33:27Z</time>
      </trkpt>
      <trkpt lat="48.35732" lon="2.38694">
        <ele>53</ele>
        <time>2017-04-16T13:34:03Z</time>
      </trkpt>
      <trkpt lat="48.35754" lon="2.387">
        <ele>53</ele>
        <time>2017-04-16T13:34:19Z</time>
      </trkpt>
      <trkpt lat="48.35799" lon="2.38689">
        <ele>52</ele>
        <time>2017-04-16T13:34:55Z</time>
      </trkpt>
      <trkpt lat="48.35845" lon="2.38692">
        <ele>52</ele>
        <time>2017-04-16T13:35:29Z</time>
      </trkpt>
      <trkpt lat="48.3589" lon="2.38711">
        <ele>52</ele>
        <time>2017-04-16T13:36:06Z</time>
      </trkpt>
      <trkpt lat="48.3593" lon="2.38745">
        <ele>52</ele>
        <time>2017-04-16T13:36:40Z</time>
      </trkpt>
      <trkpt lat="48.35967" lon="2.38782">
        <ele>52</ele>
        <time>2017-04-16T13:37:14Z</time>
      </trkpt>
      <trkpt lat="48.36012" lon="2.38799">
        <ele>52</ele>
        <time>2017-04-16T13:37:50Z</time>
      </trkpt>
      <trkpt lat="48.36034" lon="2.38807">
        <ele>52</ele>
        <time>2017-04-16T13:38:36Z</time>
      </trkpt>
      <trkpt lat="48.36058" lon="2.38801">
        <ele>52</ele>
        <time>2017-04-16T13:38:48Z</time>
      </trkpt>
      <trkpt lat="48.3608" lon="2.38807">
        <ele>51</ele>
        <time>2017-04-16T13:39:07Z</time>
      </trkpt>
      <trkpt lat="48.36127" lon="2.38803">
        <ele>51</ele>
        <time>2017-04-16T13:39:40Z</time>
      </trkpt>
      <trkpt lat="48.36149" lon="2.38816">
        <ele>51</ele>
        <time>2017-04-16T13:42:17Z</time>
      </trkpt>
      <trkpt lat="48.36168" lon="2.38835">
        <ele>51</ele>
        <time>2017-04-16T13:42:52Z</time>
      </trkpt>
      <trkpt lat="48.3618" lon="2.38863">
        <ele>52</ele>
        <time>2017-04-16T13:43:13Z</time>
      </trkpt>
      <trkpt lat="48.362" lon="2.3888">
        <ele>52</ele>
        <time>2017-04-16T13:43:33Z</time>
      </trkpt>
      <trkpt lat="48.36216" lon="2.38906">
        <ele>53</ele>
        <time>2017-04-16T13:43:56Z</time>
      </trkpt>
      <trkpt lat="48.3622" lon="2.38939">
        <ele>54</ele>
        <time>2017-04-16T13:44:12Z</time>
      </trkpt>
      <trkpt lat="48.36213" lon="2.39008">
        <ele>55</ele>
        <time>2017-04-16T13:44:52Z</time>
      </trkpt>
      <trkpt lat="48.36231" lon="2.3907">
        <ele>56</ele>
        <time>2017-04-16T13:45:35Z</time>
      </trkpt>
      <trkpt lat="48.36233" lon="2.39106">
        <ele>58</ele>
        <time>2017-04-16T13:45:57Z</time>
      </trkpt>
      <trkpt lat="48.36257" lon="2.39167">
        <ele>60</ele>
        <time>2017-04-16T13:46:35Z</time>
      </trkpt>
      <trkpt lat="48.36268" lon="2.39196">
        <ele>62</ele>
        <time>2017-04-16T13:46:53Z</time>
      </trkpt>
      <trkpt lat="48.36279" lon="2.39264">
        <ele>66</ele>
        <time>2017-04-16T13:47:38Z</time>
      </trkpt>
      <trkpt lat="48.36287" lon="2.39297">
        <ele>68</ele>
        <time>2017-04-16T13:47:58Z</time>
      </trkpt>
      <trkpt lat="48.36294" lon="2.39365">
        <ele>70</ele>
        <time>2017-04-16T13:48:55Z</time>
      </trkpt>
      <trkpt lat="48.36305" lon="2.39431">
        <ele>73</ele>
        <time>2017-04-16T13:49:42Z</time>
      </trkpt>
      <trkpt lat="48.36312" lon="2.39465">
        <ele>75</ele>
        <time>2017-04-16T13:50:01Z</time>
      </trkpt>
      <trkpt lat="48.36324" lon="2.39494">
        <ele>77</ele>
        <time>2017-04-16T13:50:21Z</time>
      </trkpt>
      <trkpt lat="48.36329" lon="2.39527">
        <ele>79</ele>
        <time>2017-04-16T13:50:45Z</time>
      </trkpt>
      <trkpt lat="48.36328" lon="2.39561">
        <ele>80</ele>
        <time>2017-04-16T13:51:06Z</time>
      </trkpt>
      <trkpt lat="48.36348" lon="2.39624">
        <ele>84</ele>
        <time>2017-04-16T13:51:53Z</time>
      </trkpt>
      <trkpt lat="48.36369" lon="2.39686">
        <ele>88</ele>
        <time>2017-04-16T13:52:38Z</time>
      </trkpt>
      <trkpt lat="48.36376" lon="2.39721">
        <ele>90</ele>
        <time>2017-04-16T13:52:54Z</time>
      </trkpt>
      <trkpt lat="48.36374" lon="2.39755">
        <ele>92</ele>
        <time>2017-04-16T13:53:18Z</time>
      </trkpt>
      <trkpt lat="48.36376" lon="2.39789">
        <ele>93</ele>
        <time>2017-04-16T13:53:39Z</time>
      </trkpt>
      <trkpt lat="48.36383" lon="2.39823">
        <ele>94</ele>
        <time>2017-04-16T13:53:58Z</time>
      </trkpt>
      <trkpt lat="48.36398" lon="2.3985">
        <ele>110</ele>
        <time>2017-04-16T13:58:59Z</time>
      </trkpt>
      <trkpt lat="48.36406" lon="2.39881">
        <ele>111</ele>
        <time>2017-04-16T13:59:18Z</time>
      </trkpt>
      <trkpt lat="48.3642" lon="2.3991">
        <ele>111</ele>
        <time>2017-04-16T13:59:36Z</time>
      </trkpt>
      <trkpt lat="48.36436" lon="2.39937">
        <ele>112</ele>
        <time>2017-04-16T13:59:54Z</time>
      </trkpt>
      <trkpt lat="48.36453" lon="2.4">
        <ele>112</ele>
        <time>2017-04-16T14:00:30Z</time>
      </trkpt>
      <trkpt lat="48.36475" lon="2.40061">
        <ele>112</ele>
        <time>2017-04-16T14:01:07Z</time>
      </trkpt>
      <trkpt lat="48.365" lon="2.40119">
        <ele>112</ele>
        <time>2017-04-16T14:01:43Z</time>
      </trkpt>
      <trkpt lat="48.3652" lon="2.40182">
        <ele>113</ele>
        <time>2017-04-16T14:02:19Z</time>
      </trkpt>
      <trkpt lat="48.36527" lon="2.40215">
        <ele>113</ele>
        <time>2017-04-16T14:02:37Z</time>
      </trkpt>
      <trkpt lat="48.36534" lon="2.40282">
        <ele>113</ele>
        <time>2017-04-16T14:03:13Z</time>
      </trkpt>
      <trkpt lat="48.36543" lon="2.40351">
        <ele>113</ele>
        <time>2017-04-16T14:03:48Z</time>
      </trkpt>
      <trkpt lat="48.36546" lon="2.4042">
        <ele>113</ele>
        <time>2017-04-16T14:04:25Z</time>
      </trkpt>
      <trkpt lat="48.36551" lon="2.40489">
        <ele>114</ele>
        <time>2017-04-16T14:04:58Z</time>
      </trkpt>
      <trkpt lat="48.36557" lon="2.40559">
        <ele>115</ele>
        <time>2017-04-16T14:05:33Z</time>
      </trkpt>
      <trkpt lat="48.36562" lon="2.40593">
        <ele>115</ele>
        <time>2017-04-16T14:06:26Z</time>
      </trkpt>
      <trkpt lat="48.36563" lon="2.40622">
        <ele>116</ele>
        <time>2017-04-16T14:06:50Z</time>
      </trkpt>
      <trkpt lat="48.3657" lon="2.40655">
        <ele>116</ele>
        <time>2017-04-16T14:07:18Z</time>
      </trkpt>
      <trkpt lat="48.3659" lon="2.40718">
        <ele>116</ele>
        <time>2017-04-16T14:07:55Z</time>
      </trkpt>
      <trkpt lat="48.36598" lon="2.40752">
        <ele>116</ele>
        <time>2017-04-16T14:08:13Z</time>
      </trkpt>
      <trkpt lat="48.36624" lon="2.40809">
        <ele>115</ele>
        <time>2017-04-16T14:08:46Z</time>
      </trkpt>
      <trkpt lat="48.36641" lon="2.40833">
        <ele>115</ele>
        <time>2017-04-16T14:09:07Z</time>
      </trkpt>
      <trkpt lat="48.36671" lon="2.40888">
        <ele>113</ele>
        <time>2017-04-16T14:09:45Z</time>
      </trkpt>
      <trkpt lat="48.36701" lon="2.40943">
        <ele>113</ele>
        <time>2017-04-16T14:10:21Z</time>
      </trkpt>
      <trkpt lat="48.36722" lon="2.40956">
        <ele>113</ele>
        <time>2017-04-16T14:10:43Z</time>
      </trkpt>
      <trkpt lat="48.36769" lon="2.40956">
        <ele>112</ele>
        <time>2017-04-16T14:11:20Z</time>
      </trkpt>
      <trkpt lat="48.36816" lon="2.40957">
        <ele>110</ele>
        <time>2017-04-16T14:11:58Z</time>
      </trkpt>
      <trkpt lat="48.36861" lon="2.40949">
        <ele>109</ele>
        <time>2017-04-16T14:12:35Z</time>
      </trkpt>
      <trkpt lat="48.36909" lon="2.40947">
        <ele>108</ele>
        <time>2017-04-16T14:13:11Z</time>
      </trkpt>
      <trkpt lat="48.36932" lon="2.40944">
        <ele>107</ele>
        <time>2017-04-16T14:13:40Z</time>
      </trkpt>
      <trkpt lat="48.36978" lon="2.40946">
        <ele>106</ele>
        <time>2017-04-16T14:14:23Z</time>
      </trkpt>
      <trkpt lat="48.37025" lon="2.40956">
        <ele>106</ele>
        <time>2017-04-16T14:15:02Z</time>
      </trkpt>
      <trkpt lat="48.3707" lon="2.40962">
        <ele>105</ele>
        <time>2017-04-16T14:15:40Z</time>
      </trkpt>
      <trkpt lat="48.37116" lon="2.40966">
        <ele>105</ele>
        <time>2017-04-16T14:16:17Z</time>
      </trkpt>
      <trkpt lat="48.37162" lon="2.40967">
        <ele>106</ele>
        <time>2017-04-16T14:16:57Z</time>
      </trkpt>
      <trkpt lat="48.37208" lon="2.40975">
        <ele>107</ele>
        <time>2017-04-16T14:17:35Z</time>
      </trkpt>
      <trkpt lat="48.37253" lon="2.40974">
        <ele>108</ele>
        <time>2017-04-16T14:18:13Z</time>
      </trkpt>
      <trkpt lat="48.37299" lon="2.40977">
        <ele>110</ele>
        <time>2017-04-16T14:18:52Z</time>
      </trkpt>
      <trkpt lat="48.37322" lon="2.40971">
        <ele>111</ele>
        <time>2017-04-16T14:19:11Z</time>
      </trkpt>
      <trkpt lat="48.37368" lon="2.40974">
        <ele>111</ele>
        <time>2017-04-16T14:19:50Z</time>
      </trkpt>
      <trkpt lat="48.37413" lon="2.40982">
        <ele>111</ele>
        <time>2017-04-16T14:20:26Z</time>
      </trkpt>
      <trkpt lat="48.37435" lon="2.40985">
        <ele>112</ele>
        <time>2017-04-16T14:20:44Z</time>
      </trkpt>
      <trkpt lat="48.37481" lon="2.40998">
        <ele>114</ele>
        <time>2017-04-16T14:21:22Z</time>
      </trkpt>
      <trkpt lat="48.37526" lon="2.41015">
        <ele>117</ele>
        <time>2017-04-16T14:22:03Z</time>
      </trkpt>
      <trkpt lat="48.3757" lon="2.41032">
        <ele>118</ele>
        <time>2017-04-16T14:22:35Z</time>
      </trkpt>
      <trkpt lat="48.37615" lon="2.41041">
        <ele>119</ele>
        <time>2017-04-16T14:23:14Z</time>
      </trkpt>
      <trkpt lat="48.37663" lon="2.41056">
        <ele>118</ele>
        <time>2017-04-16T14:23:52Z</time>
      </trkpt>
      <trkpt lat="48.37708" lon="2.41062">
        <ele>117</ele>
        <time>2017-04-16T14:24:26Z</time>
      </trkpt>
      <trkpt lat="48.37756" lon="2.4107">
        <ele>116</ele>
        <time>2017-04-16T14:25:03Z</time>
      </trkpt>
      <trkpt lat="48.37778" lon="2.41068">
        <ele>116</ele>
        <time>2017-04-16T14:25:23Z</time>
      </trkpt>
      <trkpt lat="48.37824" lon="2.41079">
        <ele>115</ele>
        <time>2017-04-16T14:26:01Z</time>
      </trkpt>
      <trkpt lat="48.3787" lon="2.41092">
        <ele>114</ele>
        <time>2017-04-16T14:26:35Z</time>
      </trkpt>
      <trkpt lat="48.37918" lon="2.41098">
        <ele>113</ele>
        <time>2017-04-16T14:27:11Z</time>
      </trkpt>
      <trkpt lat="48.37963" lon="2.41105">
        <ele>113</ele>
        <time>2017-04-16T14:27:50Z</time>
      </trkpt>
      <trkpt lat="48.37985" lon="2.41116">
        <ele>113</ele>
        <time>2017-04-16T14:28:09Z</time>
      </trkpt>
      <trkpt lat="48.38034" lon="2.41106">
        <ele>114</ele>
        <time>2017-04-16T14:28:53Z</time>
      </trkpt>
      <trkpt lat="48.38081" lon="2.4109">
        <ele>115</ele>
        <time>2017-04-16T14:29:28Z</time>
      </trkpt>
      <trkpt lat="48.38102" lon="2.41076">
        <ele>115</ele>
        <time>2017-04-16T14:29:48Z</time>
      </trkpt>
      <trkpt lat="48.38147" lon="2.41065">
        <ele>115</ele>
        <time>2017-04-16T14:30:20Z</time>
      </trkpt>
      <trkpt lat="48.38192" lon="2.41045">
        <ele>114</ele>
        <time>2017-04-16T14:30:58Z</time>
      </trkpt>
      <trkpt lat="48.38237" lon="2.41031">
        <ele>113</ele>
        <time>2017-04-16T14:31:38Z</time>
      </trkpt>
      <trkpt lat="48.38282" lon="2.41007">
        <ele>112</ele>
        <time>2017-04-16T14:32:16Z</time>
      </trkpt>
      <trkpt lat="48.38327" lon="2.40988">
        <ele>112</ele>
        <time>2017-04-16T14:32:51Z</time>
      </trkpt>
      <trkpt lat="48.38372" lon="2.40968">
        <ele>112</ele>
        <time>2017-04-16T14:33:30Z</time>
      </trkpt>
      <trkpt lat="48.38417" lon="2.40944">
        <ele>112</ele>
        <time>2017-04-16T14:34:06Z</time>
      </trkpt>
      <trkpt lat="48.38459" lon="2.40918">
        <ele>111</ele>
        <time>2017-04-16T14:34:42Z</time>
      </trkpt>
      <trkpt lat="48.38503" lon="2.40899">
        <ele>111</ele>
        <time>2017-04-16T14:35:18Z</time>
      </trkpt>
      <trkpt lat="48.38546" lon="2.40871">
        <ele>110</ele>
        <time>2017-04-16T14:35:56Z</time>
      </trkpt>
      <trkpt lat="48.38589" lon="2.40846">
        <ele>109</ele>
        <time>2017-04-16T14:36:33Z</time>
      </trkpt>
      <trkpt lat="48.38634" lon="2.40823">
        <ele>109</ele>
        <time>2017-04-16T14:37:11Z</time>
      </trkpt>
      <trkpt lat="48.38678" lon="2.40806">
        <ele>109</ele>
        <time>2017-04-16T14:37:48Z</time>
      </trkpt>
      <trkpt lat="48.38701" lon="2.40797">
        <ele>109</ele>
        <time>2017-04-16T14:38:16Z</time>
      </trkpt>
      <trkpt lat="48.38748" lon="2.40796">
        <ele>110</ele>
        <time>2017-04-16T14:38:56Z</time>
      </trkpt>
      <trkpt lat="48.38795" lon="2.40787">
        <ele>110</ele>
        <time>2017-04-16T14:39:37Z</time>
      </trkpt>
      <trkpt lat="48.38842" lon="2.40781">
        <ele>110</ele>
        <time>2017-04-16T14:40:13Z</time>
      </trkpt>
      <trkpt lat="48.38887" lon="2.4078">
        <ele>111</ele>
        <time>2017-04-16T14:40:57Z</time>
      </trkpt>
      <trkpt lat="48.38933" lon="2.40767">
        <ele>111</ele>
        <time>2017-04-16T14:41:37Z</time>
      </trkpt>
      <trkpt lat="48.38956" lon="2.40763">
        <ele>111</ele>
        <time>2017-04-16T14:41:57Z</time>
      </trkpt>
      <trkpt lat="48.38978" lon="2.40758">
        <ele>110</ele>
        <time>2017-04-16T14:43:47Z</time>
      </trkpt>
      <trkpt lat="48.39001" lon="2.40753">
        <ele>109</ele>
        <time>2017-04-16T14:48:06Z</time>
      </trkpt>
      <trkpt lat="48.39023" lon="2.4074">
        <ele>108</ele>
        <time>2017-04-16T14:48:28Z</time>
      </trkpt>
      <trkpt lat="48.39045" lon="2.40736">
        <ele>108</ele>
        <time>2017-04-16T14:48:42Z</time>
      </trkpt>
      <trkpt lat="48.39066" lon="2.4072">
        <ele>108</ele>
        <time>2017-04-16T14:49:02Z</time>
      </trkpt>
      <trkpt lat="48.3911" lon="2.40734">
        <ele>107</ele>
        <time>2017-04-16T14:49:35Z</time>
      </trkpt>
      <trkpt lat="48.39127" lon="2.40708">
        <ele>106</ele>
        <time>2017-04-16T14:49:59Z</time>
      </trkpt>
      <trkpt lat="48.39144" lon="2.40683">
        <ele>106</ele>
        <time>2017-04-16T14:50:16Z</time>
      </trkpt>
      <trkpt lat="48.39154" lon="2.40652">
        <ele>105</ele>
        <time>2017-04-16T14:50:37Z</time>
      </trkpt>
      <trkpt lat="48.3917" lon="2.40628">
        <ele>105</ele>
        <time>2017-04-16T14:50:53Z</time>
      </trkpt>
      <trkpt lat="48.39184" lon="2.40599">
        <ele>105</ele>
        <time>2017-04-16T14:51:10Z</time>
      </trkpt>
      <trkpt lat="48.39209" lon="2.40541">
        <ele>104</ele>
        <time>2017-04-16T14:51:48Z</time>
      </trkpt>
      <trkpt lat="48.39222" lon="2.40514">
        <ele>104</ele>
        <time>2017-04-16T14:52:06Z</time>
      </trkpt>
      <trkpt lat="48.39225" lon="2.40479">
        <ele>103</ele>
        <time>2017-04-16T14:52:29Z</time>
      </trkpt>
      <trkpt lat="48.39234" lon="2.40445">
        <ele>102</ele>
        <time>2017-04-16T14:52:57Z</time>
      </trkpt>
      <trkpt lat="48.39233" lon="2.40375">
        <ele>100</ele>
        <time>2017-04-16T14:53:34Z</time>
      </trkpt>
      <trkpt lat="48.39228" lon="2.40341">
        <ele>99</ele>
        <time>2017-04-16T14:53:54Z</time>
      </trkpt>
      <trkpt lat="48.39232" lon="2.40303">
        <ele>98</ele>
        <time>2017-04-16T14:54:19Z</time>
      </trkpt>
      <trkpt lat="48.39271" lon="2.40216">
        <ele>91</ele>
        <time>2017-04-16T14:56:07Z</time>
      </trkpt>
      <trkpt lat="48.39289" lon="2.40187">
        <ele>88</ele>
        <time>2017-04-16T14:56:45Z</time>
      </trkpt>
      <trkpt lat="48.39323" lon="2.40139">
        <ele>82</ele>
        <time>2017-04-16T14:57:34Z</time>
      </trkpt>
      <trkpt lat="48.39343" lon="2.4012">
        <ele>79</ele>
        <time>2017-04-16T14:57:57Z</time>
      </trkpt>
      <trkpt lat="48.3936" lon="2.40095">
        <ele>76</ele>
        <time>2017-04-16T14:58:18Z</time>
      </trkpt>
      <trkpt lat="48.39364" lon="2.40061">
        <ele>74</ele>
        <time>2017-04-16T14:58:38Z</time>
      </trkpt>
      <trkpt lat="48.39359" lon="2.39993">
        <ele>68</ele>
        <time>2017-04-16T14:59:12Z</time>
      </trkpt>
      <trkpt lat="48.39365" lon="2.39925">
        <ele>64</ele>
        <time>2017-04-16T14:59:47Z</time>
      </trkpt>
      <trkpt lat="48.39366" lon="2.39891">
        <ele>62</ele>
        <time>2017-04-16T15:00:04Z</time>
      </trkpt>
      <trkpt lat="48.39383" lon="2.39825">
        <ele>59</ele>
        <time>2017-04-16T15:00:42Z</time>
      </trkpt>
      <trkpt lat="48.39387" lon="2.3979">
        <ele>58</ele>
        <time>2017-04-16T15:01:00Z</time>
      </trkpt>
      <trkpt lat="48.39384" lon="2.39756">
        <ele>56</ele>
        <time>2017-04-16T15:01:18Z</time>
      </trkpt>
      <trkpt lat="48.39368" lon="2.39729">
        <ele>57</ele>
        <time>2017-04-16T15:01:36Z</time>
      </trkpt>
      <trkpt lat="48.39352" lon="2.39665">
        <ele>58</ele>
        <time>2017-04-16T15:02:07Z</time>
      </trkpt>
      <trkpt lat="48.39338" lon="2.39635">
        <ele>58</ele>
        <time>2017-04-16T15:02:27Z</time>
      </trkpt>
      <trkpt lat="48.39325" lon="2.39566">
        <ele>57</ele>
        <time>2017-04-16T15:03:06Z</time>
      </trkpt>
      <trkpt lat="48.39298" lon="2.39509">
        <ele>57</ele>
        <time>2017-04-16T15:03:41Z</time>
      </trkpt>
      <trkpt lat="48.39295" lon="2.39475">
        <ele>57</ele>
        <time>2017-04-16T15:03:58Z</time>
      </trkpt>
      <trkpt lat="48.39286" lon="2.39443">
        <ele>56</ele>
        <time>2017-04-16T15:04:19Z</time>
      </trkpt>
      <trkpt lat="48.39275" lon="2.39413">
        <ele>56</ele>
        <time>2017-04-16T15:04:36Z</time>
      </trkpt>
      <trkpt lat="48.39254" lon="2.39351">
        <ele>55</ele>
        <time>2017-04-16T15:05:11Z</time>
      </trkpt>
      <trkpt lat="48.39259" lon="2.39317">
        <ele>55</ele>
        <time>2017-04-16T15:05:33Z</time>
      </trkpt>
      <trkpt lat="48.3928" lon="2.39299">
        <ele>55</ele>
        <time>2017-04-16T15:06:31Z</time>
      </trkpt>
    </trkseg>
  </trk>
</gpx>